createdAt,value
2022-11-05T00:01:35.088Z,99823.84
2022-11-05T00:04:56.855Z,99824.78
2022-11-05T00:08:22.719Z,99817.66
2022-11-05T00:11:45.331Z,99836.91
2022-11-05T00:15:10.385Z,99826.69
2022-11-05T00:18:12.914Z,99840.28
2022-11-05T00:21:35.215Z,99845.44
2022-11-05T00:24:57.241Z,99834.88
2022-11-05T00:28:03.577Z,99828.75
2022-11-05T00:31:10.856Z,99828.97
2022-11-05T00:34:14.433Z,99825.25
2022-11-05T00:37:16.883Z,99827.47
2022-11-05T00:40:19.705Z,99825.03
2022-11-05T00:43:40.979Z,99823.53
2022-11-05T00:46:43.473Z,99819.63
2022-11-05T00:49:49.401Z,99817.41
2022-11-05T00:52:57.252Z,99814.00
2022-11-05T00:56:01.114Z,99823.22
2022-11-05T00:59:03.675Z,99823.56
2022-11-05T01:02:07.078Z,99829.22
2022-11-05T01:05:10.636Z,99825.56
2022-11-05T01:08:16.322Z,99835.44
2022-11-05T01:11:35.364Z,99834.31
2022-11-05T01:14:37.884Z,99834.19
2022-11-05T01:17:40.416Z,99832.06
2022-11-05T01:20:43.683Z,99824.47
2022-11-05T01:23:46.945Z,99822.44
2022-11-05T01:26:49.711Z,99817.44
2022-11-05T01:29:52.237Z,99815.63
2022-11-05T01:32:55.560Z,99833.19
2022-11-05T01:35:59.118Z,99819.19
2022-11-05T01:39:02.061Z,99828.19
2022-11-05T01:42:13.841Z,99830.59
2022-11-05T01:45:27.858Z,99831.19
2022-11-05T01:48:35.471Z,99834.69
2022-11-05T01:51:39.144Z,99836.88
2022-11-05T01:54:41.868Z,99850.59
2022-11-05T01:57:45.186Z,99833.47
2022-11-05T02:00:48.744Z,99851.56
2022-11-05T02:03:55.550Z,99859.16
2022-11-05T02:06:59.407Z,99867.47
2022-11-05T02:10:14.445Z,99863.38
2022-11-05T02:13:17.536Z,99855.38
2022-11-05T02:16:38.911Z,99856.81
2022-11-05T02:20:16.502Z,99858.72
2022-11-05T02:23:37.298Z,99859.00
2022-11-05T02:26:58.495Z,99863.69
2022-11-05T02:30:24.294Z,99850.44
2022-11-05T02:33:56.628Z,99862.59
2022-11-05T02:37:29.000Z,99865.13
2022-11-05T02:40:53.981Z,99867.00
2022-11-05T02:44:05.399Z,99861.81
2022-11-05T02:47:21.489Z,99858.91
2022-11-05T02:50:32.798Z,99860.09
2022-11-05T02:53:43.014Z,99869.03
2022-11-05T02:56:49.511Z,99870.09
2022-11-05T03:00:02.035Z,99878.75
2022-11-05T03:03:08.620Z,99876.34
2022-11-05T03:06:46.520Z,99887.13
2022-11-05T03:10:20.059Z,99872.53
2022-11-05T03:13:33.424Z,99868.75
2022-11-05T03:16:42.235Z,99875.47
2022-11-05T03:20:12.814Z,99882.78
2022-11-05T03:23:19.195Z,99894.66
2022-11-05T03:26:43.426Z,99892.75
2022-11-05T03:29:59.298Z,99899.25
2022-11-05T03:33:07.141Z,99907.09
2022-11-05T03:36:17.896Z,99898.44
2022-11-05T03:39:31.351Z,99891.72
2022-11-05T03:42:38.839Z,99897.63
2022-11-05T03:45:47.560Z,99901.94
2022-11-05T03:48:55.439Z,99906.78
2022-11-05T03:52:24.350Z,99916.72
2022-11-05T03:55:34.667Z,99917.00
2022-11-05T03:58:43.654Z,99919.75
2022-11-05T04:01:48.093Z,99917.88
2022-11-05T04:04:52.138Z,99914.59
2022-11-05T04:08:14.593Z,99921.91
2022-11-05T04:11:36.530Z,99909.19
2022-11-05T04:14:39.729Z,99905.44
2022-11-05T04:17:42.132Z,99894.72
2022-11-05T04:21:03.903Z,99903.09
2022-11-05T04:24:09.722Z,99897.94
2022-11-05T04:27:13.239Z,99897.72
2022-11-05T04:30:20.837Z,99902.59
2022-11-05T04:33:24.217Z,99901.00
2022-11-05T04:36:27.243Z,99896.09
2022-11-05T04:39:29.736Z,99891.50
2022-11-05T04:42:32.232Z,99883.69
2022-11-05T04:45:36.247Z,99891.00
2022-11-05T04:48:39.745Z,99890.69
2022-11-05T04:51:42.412Z,99894.22
2022-11-05T04:54:44.900Z,99905.00
2022-11-05T04:57:52.891Z,99901.78
2022-11-05T05:00:56.297Z,99908.28
2022-11-05T05:03:58.794Z,99904.22
2022-11-05T05:07:01.302Z,99906.91
2022-11-05T05:10:06.630Z,99913.63
2022-11-05T05:13:11.885Z,99913.09
2022-11-05T05:16:21.601Z,99922.00
2022-11-05T05:19:25.604Z,99912.09
2022-11-05T05:22:29.321Z,99909.97
2022-11-05T05:25:31.781Z,99907.72
2022-11-05T05:28:34.360Z,99911.28
2022-11-05T05:31:38.577Z,99912.44
2022-11-05T05:34:41.087Z,99917.31
2022-11-05T05:37:44.427Z,99920.53
2022-11-05T05:40:49.910Z,99923.47
2022-11-05T05:43:52.526Z,99927.47
2022-11-05T05:46:55.836Z,99937.97
2022-11-05T05:49:58.531Z,99932.59
2022-11-05T05:53:01.059Z,99922.88
2022-11-05T05:56:05.583Z,99946.03
2022-11-05T05:59:08.289Z,99946.31
2022-11-05T06:02:12.711Z,99964.34
2022-11-05T06:05:15.549Z,99964.84
2022-11-05T06:08:18.801Z,99980.00
2022-11-05T06:11:23.582Z,99977.91
2022-11-05T06:14:26.029Z,99990.78
2022-11-05T06:17:29.307Z,99984.84
2022-11-05T06:20:31.760Z,99981.59
2022-11-05T06:23:37.212Z,99990.16
2022-11-05T06:26:42.910Z,99993.44
2022-11-05T06:29:46.722Z,99994.16
2022-11-05T06:32:49.636Z,99989.00
2022-11-05T06:35:52.794Z,100005.44
2022-11-05T06:38:55.288Z,100002.78
2022-11-05T06:45:22.038Z,100004.69
2022-11-05T06:48:25.474Z,100015.25
2022-11-05T06:51:27.986Z,100016.56
2022-11-05T06:54:30.476Z,100018.81
2022-11-05T06:57:32.913Z,100029.00
2022-11-05T07:00:35.940Z,100020.84
2022-11-05T07:03:39.559Z,100014.06
2022-11-05T07:06:42.892Z,100022.66
2022-11-05T07:09:46.202Z,100018.56
2022-11-05T07:12:51.919Z,100016.53
2022-11-05T07:15:55.975Z,100015.13
2022-11-05T07:18:58.411Z,100028.34
2022-11-05T07:22:00.849Z,100012.03
2022-11-05T07:25:05.904Z,100017.22
2022-11-05T07:28:09.674Z,100011.72
2022-11-05T07:31:12.914Z,100010.34
2022-11-05T07:34:15.906Z,100025.84
2022-11-05T07:37:18.967Z,100028.47
2022-11-05T07:40:25.065Z,100025.47
2022-11-05T07:43:28.429Z,100022.25
2022-11-05T07:46:31.765Z,100021.97
2022-11-05T07:49:34.953Z,100020.88
2022-11-05T07:52:37.393Z,100024.28
2022-11-05T07:55:41.938Z,100025.28
2022-11-05T07:58:45.460Z,100027.50
2022-11-05T08:01:48.142Z,100019.56
2022-11-05T08:04:51.532Z,100029.78
2022-11-05T08:07:55.933Z,100014.16
2022-11-05T08:11:06.841Z,100021.69
2022-11-05T08:14:09.430Z,100025.84
2022-11-05T08:17:15.975Z,100022.72
2022-11-05T08:20:21.997Z,100020.72
2022-11-05T08:23:24.434Z,100013.03
2022-11-05T08:26:27.469Z,99998.22
2022-11-05T08:29:31.459Z,100011.28
2022-11-05T08:32:34.168Z,100003.53
2022-11-05T08:35:38.765Z,100014.13
2022-11-05T08:38:41.211Z,100010.97
2022-11-05T08:41:45.654Z,100002.38
2022-11-05T08:44:48.996Z,100014.50
2022-11-05T08:47:51.429Z,100015.63
2022-11-05T08:50:54.899Z,100010.97
2022-11-05T08:53:57.540Z,100003.28
2022-11-05T08:57:01.070Z,100014.31
2022-11-05T09:00:03.925Z,100021.75
2022-11-05T09:03:08.333Z,100026.09
2022-11-05T09:06:11.109Z,100021.69
2022-11-05T09:09:13.655Z,100028.50
2022-11-05T09:12:16.311Z,100031.31
2022-11-05T09:15:18.793Z,100024.75
2022-11-05T09:18:22.196Z,100039.75
2022-11-05T09:21:25.571Z,100048.00
2022-11-05T09:24:29.019Z,100045.97
2022-11-05T09:27:31.934Z,100046.22
2022-11-05T09:30:34.549Z,100053.56
2022-11-05T09:33:39.432Z,100055.03
2022-11-05T09:36:42.652Z,100042.56
2022-11-05T09:39:47.156Z,100044.16
2022-11-05T09:42:54.074Z,100046.28
2022-11-05T09:46:00.372Z,100044.56
2022-11-05T09:49:06.951Z,100043.47
2022-11-05T09:52:15.292Z,100041.75
2022-11-05T09:55:29.259Z,100035.63
2022-11-05T09:58:38.596Z,100041.88
2022-11-05T10:01:43.336Z,100054.72
2022-11-05T10:04:51.233Z,100048.06
2022-11-05T10:08:00.183Z,100035.44
2022-11-05T10:11:07.826Z,100053.78
2022-11-05T10:15:00.008Z,100042.31
2022-11-05T10:18:12.632Z,100043.88
2022-11-05T10:21:27.774Z,100050.59
2022-11-05T10:24:43.808Z,100033.38
2022-11-05T10:27:58.134Z,100036.97
2022-11-05T10:31:07.060Z,100043.19
2022-11-05T10:34:13.625Z,100038.28
2022-11-05T10:37:16.700Z,100040.09
2022-11-05T10:40:40.258Z,100044.56
2022-11-05T10:43:52.303Z,100066.22
2022-11-05T10:47:25.419Z,100044.13
2022-11-05T10:50:30.115Z,100051.34
2022-11-05T10:53:39.170Z,100060.19
2022-11-05T10:56:42.531Z,100056.88
2022-11-05T10:59:45.734Z,100052.56
2022-11-05T11:02:54.270Z,100062.13
2022-11-05T11:06:04.379Z,100068.03
2022-11-05T11:09:20.837Z,100063.19
2022-11-05T11:12:38.198Z,100068.38
2022-11-05T11:15:46.253Z,100070.81
2022-11-05T11:18:54.777Z,100075.16
2022-11-05T11:22:03.316Z,100076.06
2022-11-05T11:25:25.451Z,100069.13
2022-11-05T11:28:34.293Z,100060.09
2022-11-05T11:31:39.523Z,100062.56
2022-11-05T11:34:44.532Z,100063.31
2022-11-05T11:37:51.877Z,100084.00
2022-11-05T11:41:22.378Z,100083.72
2022-11-05T11:44:31.069Z,100072.81
2022-11-05T11:47:43.933Z,100071.88
2022-11-05T11:50:48.858Z,100082.47
2022-11-05T11:53:57.448Z,100071.06
2022-11-05T11:57:00.791Z,100074.00
2022-11-05T12:00:09.463Z,100066.69
2022-11-05T12:03:35.752Z,100060.69
2022-11-05T12:06:44.384Z,100069.78
2022-11-05T12:10:05.628Z,100065.88
2022-11-05T12:13:21.278Z,100056.78
2022-11-05T12:16:53.225Z,100073.19
2022-11-05T12:20:11.342Z,100061.84
2022-11-05T12:23:29.147Z,100070.16
2022-11-05T12:27:07.925Z,100077.03
2022-11-05T12:30:17.615Z,100089.59
2022-11-05T12:33:25.742Z,100092.81
2022-11-05T12:36:37.124Z,100099.09
2022-11-05T12:39:44.418Z,100098.06
2022-11-05T12:43:11.722Z,100097.91
2022-11-05T12:46:26.656Z,100098.72
2022-11-05T12:49:47.547Z,100102.94
2022-11-05T12:53:24.766Z,100108.03
2022-11-05T12:56:33.330Z,100116.81
2022-11-05T12:59:54.845Z,100102.16
2022-11-05T13:03:06.058Z,100113.03
2022-11-05T13:06:17.258Z,100122.78
2022-11-05T13:09:33.101Z,100127.09
2022-11-05T13:12:41.223Z,100129.34
2022-11-05T13:15:56.728Z,100133.72
2022-11-05T13:19:13.563Z,100132.38
2022-11-05T13:22:16.064Z,100138.19
2022-11-05T13:25:29.076Z,100142.50
2022-11-05T13:28:49.190Z,100136.13
2022-11-05T13:32:08.322Z,100132.50
2022-11-05T13:35:25.990Z,100125.94
2022-11-05T13:38:47.537Z,100129.78
2022-11-05T13:42:16.082Z,100124.47
2022-11-05T13:45:44.075Z,100135.84
2022-11-05T13:49:18.784Z,100132.88
2022-11-05T13:52:34.122Z,100144.28
2022-11-05T13:56:01.620Z,100142.63
2022-11-05T13:59:35.028Z,100144.06
2022-11-05T14:03:01.608Z,100151.91
2022-11-05T14:06:10.603Z,100158.41
2022-11-05T14:09:21.004Z,100152.97
2022-11-05T14:12:34.306Z,100143.22
2022-11-05T14:15:37.452Z,100156.13
2022-11-05T14:18:43.985Z,100155.31
2022-11-05T14:21:47.871Z,100163.97
2022-11-05T14:24:51.455Z,100163.00
2022-11-05T14:27:58.279Z,100159.97
2022-11-05T14:31:05.438Z,100157.88
2022-11-05T14:34:11.293Z,100170.66
2022-11-05T14:37:29.863Z,100173.94
2022-11-05T14:40:38.892Z,100186.16
2022-11-05T14:43:51.888Z,100180.41
2022-11-05T14:46:59.740Z,100190.06
2022-11-05T14:50:11.709Z,100190.25
2022-11-05T14:53:35.335Z,100195.50
2022-11-05T14:56:53.231Z,100191.00
2022-11-05T15:00:01.092Z,100186.53
2022-11-05T15:03:34.760Z,100201.53
2022-11-05T15:06:39.498Z,100210.50
2022-11-05T15:09:55.747Z,100201.25
2022-11-05T15:13:05.312Z,100202.97
2022-11-05T15:16:08.296Z,100214.50
2022-11-05T15:19:21.266Z,100209.78
2022-11-05T15:22:36.496Z,100215.53
2022-11-05T15:26:04.294Z,100216.16
2022-11-05T15:29:21.635Z,100214.34
2022-11-05T15:32:26.738Z,100218.66
2022-11-05T15:35:30.373Z,100221.88
2022-11-05T15:38:35.026Z,100227.31
2022-11-05T15:41:40.023Z,100225.03
2022-11-05T15:45:00.067Z,100234.47
2022-11-05T15:48:13.493Z,100229.34
2022-11-05T15:51:17.759Z,100233.47
2022-11-05T15:54:30.335Z,100236.63
2022-11-05T15:57:37.962Z,100239.03
2022-11-05T16:00:49.066Z,100236.91
2022-11-05T16:03:53.232Z,100240.75
2022-11-05T16:07:10.381Z,100251.28
2022-11-05T16:10:23.745Z,100240.75
2022-11-05T16:13:30.790Z,100252.19
2022-11-05T16:16:34.346Z,100264.16
2022-11-05T16:19:41.792Z,100263.84
2022-11-05T16:22:50.843Z,100266.78
2022-11-05T16:25:53.661Z,100276.22
2022-11-05T16:28:59.312Z,100279.44
2022-11-05T16:32:05.337Z,100282.44
2022-11-05T16:35:21.014Z,100279.03
2022-11-05T16:38:24.810Z,100283.97
2022-11-05T16:41:28.365Z,100284.38
2022-11-05T16:44:32.600Z,100288.75
2022-11-05T16:47:36.222Z,100301.41
2022-11-05T16:50:39.444Z,100296.09
2022-11-05T16:53:43.358Z,100300.50
2022-11-05T16:56:47.589Z,100312.31
2022-11-05T16:59:50.513Z,100307.69
2022-11-05T17:02:54.502Z,100306.06
2022-11-05T17:05:59.216Z,100313.00
2022-11-05T17:09:02.010Z,100321.59
2022-11-05T17:12:05.184Z,100323.00
2022-11-05T17:15:27.453Z,100327.09
2022-11-05T17:18:30.782Z,100333.41
2022-11-05T17:21:36.994Z,100332.19
2022-11-05T17:24:39.699Z,100336.88
2022-11-05T17:27:43.388Z,100341.50
2022-11-05T17:30:52.982Z,100344.44
2022-11-05T17:33:58.382Z,100343.63
2022-11-05T17:37:01.074Z,100342.88
2022-11-05T17:40:08.229Z,100346.47
2022-11-05T17:43:11.434Z,100347.06
2022-11-05T17:46:17.102Z,100351.16
2022-11-05T17:49:19.831Z,100357.81
2022-11-05T17:52:22.624Z,100362.44
2022-11-05T17:55:26.347Z,100360.91
2022-11-05T17:58:29.105Z,100361.41
2022-11-05T18:01:34.661Z,100366.31
2022-11-05T18:04:38.993Z,100362.81
2022-11-05T18:07:42.146Z,100368.34
2022-11-05T18:10:45.471Z,100368.94
2022-11-05T18:13:51.006Z,100365.09
2022-11-05T18:17:00.066Z,100375.94
2022-11-05T18:20:04.830Z,100375.97
2022-11-05T18:23:10.653Z,100383.00
2022-11-05T18:26:16.215Z,100384.09
2022-11-05T18:29:19.937Z,100387.03
2022-11-05T18:32:23.218Z,100393.84
2022-11-05T18:35:27.645Z,100402.28
2022-11-05T18:38:30.523Z,100407.47
2022-11-05T18:41:33.448Z,100410.69
2022-11-05T18:44:39.657Z,100413.91
2022-11-05T18:47:43.266Z,100419.41
2022-11-05T18:50:46.863Z,100417.81
2022-11-05T18:53:50.292Z,100425.63
2022-11-05T18:56:54.162Z,100428.88
2022-11-05T18:59:57.836Z,100436.91
2022-11-05T19:03:01.310Z,100436.78
2022-11-05T19:06:05.503Z,100441.38
2022-11-05T19:09:11.979Z,100448.41
2022-11-05T19:12:15.233Z,100446.28
2022-11-05T19:15:19.025Z,100450.63
2022-11-05T19:18:21.736Z,100450.91
2022-11-05T19:21:26.348Z,100456.09
2022-11-05T19:24:29.885Z,100462.31
2022-11-05T19:27:36.076Z,100465.56
2022-11-05T19:30:39.845Z,100473.38
2022-11-05T19:33:44.417Z,100476.91
2022-11-05T19:36:47.922Z,100473.97
2022-11-05T19:39:51.102Z,100478.59
2022-11-05T19:42:58.385Z,100476.97
2022-11-05T19:46:04.540Z,100483.75
2022-11-05T19:49:08.209Z,100486.72
2022-11-05T19:52:12.922Z,100491.56
2022-11-05T19:55:15.680Z,100497.78
2022-11-05T19:58:18.515Z,100504.00
2022-11-05T20:01:24.144Z,100500.50
2022-11-05T20:04:29.050Z,100507.22
2022-11-05T20:07:31.897Z,100513.97
2022-11-05T20:10:37.605Z,100517.78
2022-11-05T20:13:41.966Z,100522.47
2022-11-05T20:16:46.946Z,100520.25
2022-11-05T20:19:53.452Z,100519.53
2022-11-05T20:22:57.744Z,100530.66
2022-11-05T20:26:03.825Z,100530.72
2022-11-05T20:29:12.983Z,100532.03
2022-11-05T20:32:16.414Z,100533.41
2022-11-05T20:35:19.938Z,100544.47
2022-11-05T20:38:23.450Z,100540.69
2022-11-05T20:41:27.153Z,100550.97
2022-11-05T20:44:30.454Z,100549.91
2022-11-05T20:47:33.302Z,100549.63
2022-11-05T20:50:41.896Z,100549.66
2022-11-05T20:53:46.221Z,100550.25
2022-11-05T20:56:50.519Z,100555.38
2022-11-05T20:59:53.342Z,100556.28
2022-11-05T21:02:57.031Z,100556.81
2022-11-05T21:06:04.171Z,100563.84
2022-11-05T21:09:10.818Z,100560.63
2022-11-05T21:12:13.706Z,100565.75
2022-11-05T21:15:22.899Z,100564.66
2022-11-05T21:18:29.731Z,100565.22
2022-11-05T21:21:37.388Z,100565.97
2022-11-05T21:24:43.393Z,100571.13
2022-11-05T21:27:46.124Z,100567.94
2022-11-05T21:30:49.494Z,100569.50
2022-11-05T21:33:55.160Z,100563.84
2022-11-05T21:36:58.902Z,100571.69
2022-11-05T21:40:01.896Z,100571.22
2022-11-05T21:43:06.034Z,100572.84
2022-11-05T21:46:12.530Z,100568.81
2022-11-05T21:49:16.109Z,100572.34
2022-11-05T21:52:37.315Z,100576.13
2022-11-05T21:55:59.898Z,100574.56
2022-11-05T21:59:21.372Z,100576.94
2022-11-05T22:02:25.255Z,100571.06
2022-11-05T22:05:28.656Z,100571.06
2022-11-05T22:08:32.075Z,100577.53
2022-11-05T22:11:37.466Z,100580.75
2022-11-05T22:14:41.206Z,100581.00
2022-11-05T22:17:46.893Z,100583.16
2022-11-05T22:20:49.734Z,100578.53
2022-11-05T22:23:53.749Z,100579.88
2022-11-05T22:26:56.224Z,100581.00
2022-11-05T22:29:58.807Z,100581.84
2022-11-05T22:33:02.578Z,100582.13
2022-11-05T22:36:05.311Z,100572.91
2022-11-05T22:39:09.682Z,100582.94
2022-11-05T22:42:12.499Z,100582.19
2022-11-05T22:45:16.095Z,100574.34
2022-11-05T22:48:18.840Z,100587.25
2022-11-05T22:51:24.971Z,100589.69
2022-11-05T22:54:27.705Z,100583.75
2022-11-05T22:57:30.270Z,100591.28
2022-11-05T23:00:36.002Z,100595.88
2022-11-05T23:03:40.362Z,100593.47
2022-11-05T23:07:02.282Z,100588.59
2022-11-05T23:10:23.702Z,100587.25
2022-11-05T23:13:26.781Z,100593.69
2022-11-05T23:16:48.388Z,100589.94
2022-11-05T23:20:10.492Z,100586.44
2022-11-05T23:23:32.003Z,100591.34
2022-11-05T23:26:51.299Z,100603.28
2022-11-05T23:29:56.508Z,100604.66
2022-11-05T23:32:59.683Z,100609.50
2022-11-05T23:36:20.856Z,100617.03
2022-11-05T23:39:24.162Z,100615.66
2022-11-05T23:42:46.909Z,100614.63
2022-11-05T23:46:08.516Z,100612.50
2022-11-05T23:49:12.219Z,100617.38
2022-11-05T23:52:14.782Z,100616.56
2022-11-05T23:55:18.284Z,100613.91
2022-11-05T23:58:21.715Z,100612.78
